Time;durP1;ratioP1;P1;durP2;ratioP2;P2;SDS_P1;SDS_P2;PMS_P1;PMS_P2;Temp;Humidity;BMP_temperature;BMP_pressure;BME280_temperature;BME280_humidity;BME280_pressure;Samples;Min_cycle;Max_cycle;Signal;HPM_P1;HPM_P2
2022/03/04 00:00:49;;;;;;;41.13;17.20;;;;;;;-0.05;100.00;102187.06;4976580;28;20079;-70
2022/03/04 00:03:14;;;;;;;37.80;15.93;;;;;;;-0.08;100.00;102192.56;4954717;28;20524;-70
2022/03/04 00:05:40;;;;;;;33.45;16.88;;;;;;;-0.08;100.00;102186.44;4983163;28;20072;-70
2022/03/04 00:08:06;;;;;;;38.20;16.85;;;;;;;-0.04;100.00;102177.28;4967448;28;20070;-70
2022/03/04 00:10:32;;;;;;;35.88;17.33;;;;;;;-0.02;100.00;102188.63;4980478;28;21096;-70
2022/03/04 00:12:58;;;;;;;37.55;17.92;;;;;;;-0.06;100.00;102180.06;4959885;28;20129;-70
2022/03/04 00:15:23;;;;;;;42.33;18.38;;;;;;;-0.05;100.00;102183.56;4970394;28;20157;-70
2022/03/04 00:17:49;;;;;;;32.25;17.17;;;;;;;-0.19;100.00;102194.31;4982030;28;20033;-70
2022/03/04 00:20:15;;;;;;;41.92;18.80;;;;;;;-0.27;100.00;102190.41;4946011;28;20118;-70
2022/03/04 00:22:41;;;;;;;39.17;18.58;;;;;;;-0.22;100.00;102198.00;4950044;28;20033;-70
2022/03/04 00:25:06;;;;;;;41.03;18.63;;;;;;;-0.18;100.00;102196.81;4959062;28;20041;-70
2022/03/04 00:27:32;;;;;;;43.92;19.20;;;;;;;-0.27;100.00;102195.69;4972038;28;20045;-70
2022/03/04 00:29:57;;;;;;;39.38;18.27;;;;;;;-0.36;100.00;102203.44;4981766;28;20036;-70
2022/03/04 00:32:23;;;;;;;44.88;19.45;;;;;;;-0.33;100.00;102203.22;4952115;28;20054;-70
2022/03/04 00:34:48;;;;;;;35.83;18.23;;;;;;;-0.38;100.00;102208.00;4977586;28;20030;-70
2022/03/04 00:37:13;;;;;;;42.72;20.77;;;;;;;-0.49;100.00;102211.41;4975524;28;20397;-70
2022/03/04 00:39:39;;;;;;;40.15;20.50;;;;;;;-0.49;100.00;102208.78;4969424;28;20547;-69
2022/03/04 00:42:05;;;;;;;42.63;19.83;;;;;;;-0.52;100.00;102207.19;4981944;28;20157;-69
2022/03/04 00:44:30;;;;;;;48.70;21.77;;;;;;;-0.59;100.00;102210.38;4965168;28;20077;-70
2022/03/04 00:46:57;;;;;;;45.55;19.83;;;;;;;-0.58;100.00;102214.69;4980768;28;20044;-70
2022/03/04 00:49:22;;;;;;;44.85;22.17;;;;;;;-0.58;100.00;102215.53;4965814;28;20394;-70
2022/03/04 00:51:48;;;;;;;44.10;21.48;;;;;;;-0.54;100.00;102210.88;4971788;28;20053;-70
2022/03/04 00:54:13;;;;;;;42.08;20.13;;;;;;;-0.54;100.00;102210.88;4983088;28;20033;-70
2022/03/04 01:15:35;;;;;;;;;;;;;;;-1.08;100.00;102219.00;5130416;23;20028;-70
2022/03/04 01:23:39;;;;;;;55.63;22.60;;;;;;;-1.47;100.00;102226.84;5387994;23;21269;-67
2022/03/04 01:26:04;;;;;;;63.67;24.40;;;;;;;-1.56;100.00;102223.94;4922374;28;20042;-66
2022/03/04 01:28:29;;;;;;;59.70;24.33;;;;;;;-1.63;100.00;102217.38;4909809;28;20054;-67
2022/03/04 01:30:55;;;;;;;52.75;23.88;;;;;;;-1.69;100.00;102227.38;4926718;28;20070;-66
2022/03/04 01:33:21;;;;;;;53.72;23.33;;;;;;;-1.79;100.00;102226.31;4909468;28;20050;-66
2022/03/04 01:35:46;;;;;;;55.35;23.67;;;;;;;-1.97;100.00;102223.03;4924481;28;20223;-66
2022/03/04 01:38:12;;;;;;;57.28;23.23;;;;;;;-2.04;100.00;102231.44;4920982;28;20144;-67
2022/03/04 01:40:38;;;;;;;60.75;24.35;;;;;;;-2.06;100.00;102231.53;4911327;28;20061;-67
2022/03/04 01:43:04;;;;;;;60.13;24.67;;;;;;;-2.10;100.00;102231.84;4917685;28;20597;-66
2022/03/04 01:45:29;;;;;;;63.08;24.52;;;;;;;-2.10;100.00;102226.56;4920150;28;20549;-66
2022/03/04 01:47:55;;;;;;;63.45;25.50;;;;;;;-2.13;100.00;102226.75;4916419;28;20411;-66
2022/03/04 01:50:23;;;;;;;61.47;24.55;;;;;;;-2.24;100.00;102236.19;4918552;28;20109;-67
2022/03/04 01:52:49;;;;;;;58.83;24.02;;;;;;;-2.32;100.00;102227.03;4918900;28;20081;-66
2022/03/04 01:55:14;;;;;;;64.65;25.85;;;;;;;-2.27;100.00;102231.09;4922754;28;20031;-66
2022/03/04 01:57:39;;;;;;;72.50;26.75;;;;;;;-2.29;100.00;102238.25;4919143;28;20391;-66
2022/03/04 02:00:08;;;;;;;61.88;24.58;;;;;;;-2.37;100.00;102231.75;4925998;28;20482;-66
2022/03/04 02:02:33;;;;;;;71.63;28.05;;;;;;;-2.44;100.00;102234.78;4919730;28;20043;-66
2022/03/04 02:04:59;;;;;;;74.32;27.52;;;;;;;-2.50;100.00;102235.13;4923230;28;20106;-66
2022/03/04 02:07:24;;;;;;;74.07;27.88;;;;;;;-2.55;100.00;102231.09;4923867;28;20074;-66
2022/03/04 02:09:50;;;;;;;75.82;26.90;;;;;;;-2.57;100.00;102238.25;4911838;28;20067;-66
2022/03/04 02:12:15;;;;;;;84.93;29.85;;;;;;;-2.41;100.00;102236.38;4923221;28;20031;-66
2022/03/04 02:14:40;;;;;;;81.40;30.67;;;;;;;-2.31;100.00;102239.31;4917890;28;20501;-66
2022/03/04 02:17:06;;;;;;;75.85;28.88;;;;;;;-2.24;100.00;102237.97;4923324;28;20574;-66
2022/03/04 02:19:31;;;;;;;74.63;28.48;;;;;;;-2.13;100.00;102242.59;4923711;28;20074;-66
2022/03/04 02:22:00;;;;;;;85.10;31.00;;;;;;;-2.14;100.00;102233.81;4929739;28;20042;-66
2022/03/04 02:24:26;;;;;;;84.30;30.73;;;;;;;-2.22;100.00;102239.56;4904221;28;20064;-66
2022/03/04 02:26:53;;;;;;;94.47;32.22;;;;;;;-2.23;100.00;102219.41;4911453;28;20055;-66
2022/03/04 02:29:19;;;;;;;91.78;33.10;;;;;;;-2.03;100.00;102218.16;4906305;28;20562;-66
2022/03/04 02:31:45;;;;;;;88.68;33.45;;;;;;;-2.04;100.00;102228.78;4916248;28;20370;-66
2022/03/04 02:34:10;;;;;;;94.18;31.55;;;;;;;-2.00;100.00;102238.22;4913999;28;20031;-66
2022/03/04 02:36:37;;;;;;;88.55;30.38;;;;;;;-2.03;100.00;102235.78;4900930;28;20053;-66
2022/03/04 02:39:04;;;;;;;96.88;31.42;;;;;;;-2.05;100.00;102224.47;4905753;28;20492;-66
2022/03/04 02:41:30;;;;;;;84.90;31.42;;;;;;;-2.00;100.00;102217.97;4919258;28;21594;-66
2022/03/04 02:43:56;;;;;;;91.32;32.15;;;;;;;-1.92;100.00;102220.94;4917685;28;20122;-66
2022/03/04 02:46:21;;;;;;;93.97;31.73;;;;;;;-2.01;100.00;102210.13;4904004;28;20055;-67
2022/03/04 02:48:47;;;;;;;91.88;31.67;;;;;;;-1.86;100.00;102210.91;4918750;28;20035;-66
2022/03/04 02:51:12;;;;;;;82.07;30.23;;;;;;;-1.80;100.00;102213.19;4914706;28;20031;-66
2022/03/04 02:53:38;;;;;;;84.97;31.27;;;;;;;-1.74;100.00;102207.50;4919109;28;20030;-66
2022/03/04 02:56:04;;;;;;;88.95;32.63;;;;;;;-1.80;100.00;102214.03;4920827;28;20034;-66
2022/03/04 02:58:29;;;;;;;90.57;30.27;;;;;;;-1.90;100.00;102218.19;4916728;28;20063;-66
2022/03/04 03:00:55;;;;;;;91.63;31.88;;;;;;;-1.98;100.00;102212.56;4920135;28;20455;-66
2022/03/04 03:03:20;;;;;;;74.68;30.30;;;;;;;-1.91;100.00;102211.22;4907025;28;20515;-66
2022/03/04 03:05:45;;;;;;;98.72;34.80;;;;;;;-1.82;100.00;102208.00;4921244;28;20035;-66
2022/03/04 03:08:11;;;;;;;90.28;31.42;;;;;;;-1.77;100.00;102219.09;4921126;28;20027;-66
2022/03/04 03:10:37;;;;;;;82.38;31.30;;;;;;;-1.80;100.00;102216.66;4919955;28;20267;-66
2022/03/04 03:13:03;;;;;;;87.55;32.60;;;;;;;-1.92;100.00;102217.47;4920802;28;20034;-66
2022/03/04 03:15:28;;;;;;;94.07;32.72;;;;;;;-1.93;100.00;102224.53;4916367;28;20031;-66
2022/03/04 03:17:54;;;;;;;85.20;30.95;;;;;;;-1.91;100.00;102216.50;4919980;28;20730;-66
2022/03/04 03:20:20;;;;;;;94.07;34.08;;;;;;;-1.75;100.00;102211.94;4921466;28;20177;-66
2022/03/04 03:22:45;;;;;;;96.03;31.92;;;;;;;-1.77;100.00;102208.53;4916937;28;20768;-66
2022/03/04 03:25:12;;;;;;;79.38;31.52;;;;;;;-1.73;100.00;102199.47;4920036;28;20083;-67
2022/03/04 03:27:38;;;;;;;88.70;32.50;;;;;;;-1.62;100.00;102201.41;4916363;28;20114;-65
2022/03/04 03:30:05;;;;;;;93.10;34.35;;;;;;;-1.66;100.00;102196.44;4921153;28;20105;-65
2022/03/04 03:32:30;;;;;;;90.85;33.17;;;;;;;-1.65;100.00;102198.13;4920680;28;20042;-67
2022/03/04 03:34:56;;;;;;;78.55;32.10;;;;;;;-1.66;100.00;102204.34;4892327;28;20089;-67
2022/03/04 03:37:21;;;;;;;84.82;32.53;;;;;;;-1.79;100.00;102205.16;4921010;28;20051;-67
2022/03/04 03:39:46;;;;;;;86.55;32.70;;;;;;;-1.85;100.00;102207.34;4898811;28;20051;-67
2022/03/04 03:42:12;;;;;;;90.65;31.42;;;;;;;-1.83;100.00;102203.66;4921402;28;20401;-67
2022/03/04 03:44:37;;;;;;;94.35;33.17;;;;;;;-1.72;100.00;102206.47;4919843;28;20035;-67
2022/03/04 03:47:03;;;;;;;83.85;33.05;;;;;;;-1.62;100.00;102208.50;4916801;28;20879;-68
2022/03/04 03:49:28;;;;;;;86.00;32.13;;;;;;;-1.63;100.00;102205.00;4903106;28;20817;-68
2022/03/04 03:51:54;;;;;;;78.40;31.05;;;;;;;-1.62;100.00;102213.78;4916596;28;20031;-65
2022/03/04 03:54:19;;;;;;;90.22;32.50;;;;;;;-1.53;100.00;102231.69;4922001;28;20038;-65
2022/03/04 03:56:45;;;;;;;79.38;31.63;;;;;;;-1.52;100.00;102225.44;4919889;28;20042;-67
2022/03/04 03:59:11;;;;;;;77.03;31.50;;;;;;;-1.52;100.00;102218.34;4904722;28;20059;-67
2022/03/04 04:01:38;;;;;;;85.00;32.50;;;;;;;-1.49;100.00;102225.25;4923323;28;20494;-67
2022/03/04 04:04:05;;;;;;;80.15;31.17;;;;;;;-1.49;100.00;102223.44;4916340;28;23530;-67
2022/03/04 04:06:31;;;;;;;81.45;32.65;;;;;;;-1.50;100.00;102231.50;4905457;28;20046;-68
2022/03/04 04:08:56;;;;;;;77.35;32.72;;;;;;;-1.55;100.00;102223.84;4919597;28;20505;-67
2022/03/04 04:11:22;;;;;;;89.15;32.17;;;;;;;-1.57;100.00;102220.47;4917707;28;20030;-68
2022/03/04 04:13:47;;;;;;;87.18;32.03;;;;;;;-1.55;100.00;102223.00;4918296;28;20041;-68
2022/03/04 04:16:14;;;;;;;87.13;33.35;;;;;;;-1.53;100.00;102223.75;4906456;28;20134;-68
2022/03/04 04:18:40;;;;;;;79.82;33.40;;;;;;;-1.54;100.00;102232.63;4920548;28;20461;-65
2022/03/04 04:21:06;;;;;;;89.78;35.38;;;;;;;-1.54;100.00;102224.72;4919052;28;20519;-65
2022/03/04 04:23:32;;;;;;;80.47;31.85;;;;;;;-1.46;100.00;102225.88;4918756;28;20035;-67
2022/03/04 04:25:57;;;;;;;81.55;33.22;;;;;;;-1.49;100.00;102222.59;4921538;28;20051;-68
2022/03/04 04:28:25;;;;;;;78.47;31.35;;;;;;;-1.43;100.00;102219.56;4906895;28;20165;-66
2022/03/04 04:30:50;;;;;;;92.10;33.03;;;;;;;-1.45;100.00;102222.28;4919522;28;20498;-66
2022/03/04 04:33:17;;;;;;;86.63;33.03;;;;;;;-1.46;100.00;102227.69;4914910;28;20074;-66
2022/03/04 04:35:42;;;;;;;81.40;33.10;;;;;;;-1.43;100.00;102221.38;4909660;28;20055;-66
2022/03/04 04:38:08;;;;;;;86.70;32.88;;;;;;;-1.45;100.00;102229.38;4920699;28;20284;-65
2022/03/04 04:40:33;;;;;;;82.65;33.33;;;;;;;-1.43;100.00;102235.41;4913808;28;20121;-66
2022/03/04 04:42:59;;;;;;;88.38;33.17;;;;;;;-1.46;100.00;102230.34;4933678;28;21061;-66
2022/03/04 04:45:24;;;;;;;89.43;35.47;;;;;;;-1.43;100.00;102235.41;4899678;28;20028;-66
2022/03/04 04:47:49;;;;;;;88.93;33.47;;;;;;;-1.46;100.00;102238.25;4919897;28;20035;-66
2022/03/04 04:50:15;;;;;;;94.22;34.08;;;;;;;-1.42;100.00;102247.69;4921256;28;20076;-66
2022/03/04 04:52:40;;;;;;;85.88;33.25;;;;;;;-1.43;100.00;102253.94;4915875;28;20482;-66
2022/03/04 04:55:06;;;;;;;79.22;32.55;;;;;;;-1.40;100.00;102248.44;4919493;28;20472;-66
2022/03/04 04:57:31;;;;;;;70.45;31.50;;;;;;;-1.37;100.00;102247.38;4915699;28;20562;-66
2022/03/04 04:59:57;;;;;;;79.82;32.70;;;;;;;-1.35;100.00;102246.31;4909865;28;20051;-66
2022/03/04 05:02:22;;;;;;;77.85;32.78;;;;;;;-1.43;100.00;102238.06;4921044;28;20039;-66
2022/03/04 05:04:48;;;;;;;74.05;31.40;;;;;;;-1.42;100.00;102239.75;4909581;28;20047;-66
2022/03/04 05:07:13;;;;;;;77.93;32.97;;;;;;;-1.45;100.00;102242.59;4921178;28;20035;-68
2022/03/04 05:09:39;;;;;;;78.07;32.17;;;;;;;-1.40;100.00;102245.81;4883651;28;20542;-66
2022/03/04 05:12:05;;;;;;;76.53;31.85;;;;;;;-1.43;100.00;102240.72;4912249;28;20677;-66
2022/03/04 05:14:30;;;;;;;83.63;33.88;;;;;;;-1.43;100.00;102253.94;4920761;28;20143;-66
2022/03/04 05:16:56;;;;;;;81.60;33.35;;;;;;;-1.38;100.00;102254.47;4904405;28;20059;-66
2022/03/04 05:19:21;;;;;;;78.82;34.00;;;;;;;-1.41;100.00;102259.09;4920935;28;20043;-66
2022/03/04 05:21:47;;;;;;;80.03;33.78;;;;;;;-1.43;100.00;102253.94;4914814;28;20487;-66
2022/03/04 05:24:12;;;;;;;81.82;32.90;;;;;;;-1.39;100.00;102255.41;4925882;28;20047;-66
2022/03/04 05:26:41;;;;;;;81.18;34.33;;;;;;;-1.34;100.00;102248.00;4922379;28;20074;-66
2022/03/04 05:29:09;;;;;;;76.72;33.05;;;;;;;-1.29;100.00;102251.22;4906087;28;20328;-66
2022/03/04 05:31:36;;;;;;;71.57;31.67;;;;;;;-1.31;100.00;102258.38;4924849;28;20529;-66
2022/03/04 05:34:01;;;;;;;73.70;31.80;;;;;;;-1.30;100.00;102257.47;4910908;28;20051;-66
2022/03/04 05:36:27;;;;;;;75.93;32.85;;;;;;;-1.37;100.00;102258.81;4920404;28;20112;-66
2022/03/04 05:38:53;;;;;;;74.97;30.80;;;;;;;-1.34;100.00;102253.31;4921101;28;20046;-66
2022/03/04 05:41:19;;;;;;;71.65;30.50;;;;;;;-1.27;100.00;102259.88;4907227;28;20058;-66
2022/03/04 05:43:47;;;;;;;78.03;31.63;;;;;;;-1.26;100.00;102261.59;4921325;28;20113;-66
2022/03/04 05:46:13;;;;;;;77.82;30.73;;;;;;;-1.21;100.00;102263.94;4906259;28;20070;-66
2022/03/04 05:48:39;;;;;;;66.45;31.23;;;;;;;-1.22;100.00;102263.09;4920455;28;20038;-66
2022/03/04 05:51:05;;;;;;;76.90;32.40;;;;;;;-1.22;100.00;102265.72;4921543;28;20145;-66
2022/03/04 05:53:31;;;;;;;70.18;31.75;;;;;;;-1.22;100.00;102257.78;4916908;28;20039;-66
2022/03/04 05:55:56;;;;;;;71.05;30.58;;;;;;;-1.26;100.00;102256.31;4920216;28;20266;-66
2022/03/04 05:58:22;;;;;;;73.30;30.55;;;;;;;-1.18;100.00;102254.94;4904243;28;21376;-66
2022/03/04 06:00:47;;;;;;;66.20;29.13;;;;;;;-1.24;100.00;102248.25;4920149;28;20122;-66
2022/03/04 06:03:13;;;;;;;67.53;31.15;;;;;;;-1.20;100.00;102260.31;4917867;28;20049;-66
2022/03/04 06:05:39;;;;;;;66.72;30.85;;;;;;;-1.21;100.00;102261.28;4907466;28;20050;-66
2022/03/04 06:08:04;;;;;;;75.93;32.55;;;;;;;-1.24;100.00;102249.09;4920034;28;20067;-66
2022/03/04 06:10:30;;;;;;;73.05;31.02;;;;;;;-1.18;100.00;102252.31;4918542;28;20734;-66
2022/03/04 06:12:55;;;;;;;67.32;29.55;;;;;;;-1.34;100.00;102242.72;4918402;28;20356;-67
2022/03/04 06:15:21;;;;;;;70.55;30.73;;;;;;;-1.22;100.00;102267.53;4915608;28;20093;-66
2022/03/04 06:17:50;;;;;;;66.82;30.70;;;;;;;-1.21;100.00;102263.94;4908233;28;20055;-66
2022/03/04 06:20:19;;;;;;;70.38;31.42;;;;;;;-1.24;100.00;102264.97;4921601;28;20122;-66
2022/03/04 06:22:44;;;;;;;65.72;29.98;;;;;;;-1.23;100.00;102266.69;4902323;28;20051;-66
2022/03/04 06:25:11;;;;;;;62.78;29.15;;;;;;;-1.19;100.00;102262.03;4920818;28;20389;-66
2022/03/04 06:27:37;;;;;;;70.68;32.13;;;;;;;-1.18;100.00;102258.44;4897797;28;20438;-66
2022/03/04 06:30:04;;;;;;;72.57;31.95;;;;;;;-1.13;100.00;102266.06;4913702;28;22439;-65
2022/03/04 06:32:29;;;;;;;65.32;31.40;;;;;;;-1.05;100.00;102269.06;4922125;28;20038;-65
2022/03/04 06:34:57;;;;;;;67.45;30.70;;;;;;;-1.09;100.00;102271.06;4891739;28;20190;-66
2022/03/04 06:37:23;;;;;;;68.88;30.70;;;;;;;-1.00;100.00;102281.00;4912697;28;20039;-66
2022/03/04 06:39:49;;;;;;;67.32;30.13;;;;;;;-0.99;100.00;102274.75;4919326;28;20046;-66
2022/03/04 06:42:14;;;;;;;65.05;29.52;;;;;;;-1.02;100.00;102275.00;4914743;28;20102;-66
2022/03/04 06:44:40;;;;;;;70.13;30.52;;;;;;;-1.05;100.00;102280.47;4921947;28;20398;-66
2022/03/04 06:47:05;;;;;;;66.45;32.17;;;;;;;-1.07;100.00;102278.88;4907439;28;20063;-66
2022/03/04 06:49:30;;;;;;;72.28;31.23;;;;;;;-1.06;100.00;102275.28;4923746;28;20272;-66
2022/03/04 06:51:56;;;;;;;65.82;30.50;;;;;;;-0.97;100.00;102272.03;4916266;28;20043;-66
2022/03/04 06:54:22;;;;;;;68.68;31.63;;;;;;;-0.82;100.00;102286.03;4890442;28;20105;-66
2022/03/04 06:56:47;;;;;;;69.25;30.50;;;;;;;-0.80;100.00;102284.97;4921997;28;20047;-66
2022/03/04 06:59:13;;;;;;;72.97;32.97;;;;;;;-0.70;100.00;102289.63;4901361;28;20051;-66
2022/03/04 07:01:38;;;;;;;64.00;31.27;;;;;;;-0.66;100.00;102294.63;4922672;28;20177;-66
2022/03/04 07:04:04;;;;;;;64.85;30.65;;;;;;;-0.60;100.00;102296.84;4916326;28;20518;-66
2022/03/04 07:06:29;;;;;;;62.45;30.60;;;;;;;-0.55;100.00;102300.03;4915662;28;20527;-66
2022/03/04 07:08:55;;;;;;;60.67;29.50;;;;;;;-0.50;100.00;102295.25;4922414;28;20037;-67
2022/03/04 07:11:20;;;;;;;61.70;30.83;;;;;;;-0.57;100.00;102293.97;4913420;28;20051;-67
2022/03/04 07:13:45;;;;;;;57.83;28.75;;;;;;;-0.62;100.00;102295.25;4926882;28;20034;-67
2022/03/04 07:16:11;;;;;;;64.80;28.42;;;;;;;-0.58;100.00;102287.00;4917640;28;20515;-67
2022/03/04 07:18:36;;;;;;;64.32;31.83;;;;;;;-0.59;100.00;102295.06;4923492;28;20678;-66
2022/03/04 07:21:02;;;;;;;57.67;27.88;;;;;;;-0.56;100.00;102287.75;4923415;28;20043;-66
2022/03/04 07:23:28;;;;;;;55.75;28.20;;;;;;;-0.61;100.00;102299.59;4923659;28;20031;-66
2022/03/04 07:25:53;;;;;;;54.45;27.77;;;;;;;-0.54;100.00;102306.16;4921354;28;20189;-66
2022/03/04 07:28:19;;;;;;;58.80;28.77;;;;;;;-0.51;100.00;102300.66;4917296;28;20454;-66
2022/03/04 07:30:44;;;;;;;51.13;25.67;;;;;;;-0.45;100.00;102304.69;4913637;28;20055;-66
2022/03/04 07:33:10;;;;;;;52.70;28.17;;;;;;;-0.39;100.00;102310.41;4923207;28;20045;-67
2022/03/04 07:35:39;;;;;;;57.92;27.20;;;;;;;-0.32;100.00;102301.06;4904925;28;20047;-66
2022/03/04 07:38:04;;;;;;;50.50;27.20;;;;;;;-0.24;100.00;102287.31;4923199;28;20089;-66
2022/03/04 07:40:30;;;;;;;52.80;27.70;;;;;;;-0.13;100.00;102302.47;4904094;28;22007;-66
2022/03/04 07:42:56;;;;;;;51.78;26.38;;;;;;;0.02;100.00;102304.03;4922133;28;21061;-66
2022/03/04 07:45:22;;;;;;;49.85;28.65;;;;;;;0.04;100.00;102306.59;4928207;28;20035;-66
2022/03/04 07:47:47;;;;;;;56.60;26.73;;;;;;;0.02;100.00;102305.84;4908621;28;20055;-67
2022/03/04 07:50:14;;;;;;;51.63;27.83;;;;;;;0.16;100.00;102316.31;4923461;28;20030;-67
2022/03/04 07:52:41;;;;;;;49.30;26.13;;;;;;;0.20;100.00;102313.31;4920950;28;25061;-68
2022/03/04 07:55:09;;;;;;;47.25;25.52;;;;;;;0.28;100.00;102314.56;4927176;28;20061;-67
2022/03/04 07:57:35;;;;;;;53.40;26.90;;;;;;;0.30;100.00;102313.50;4922241;28;22726;-68
2022/03/04 08:00:01;;;;;;;46.00;25.13;;;;;;;0.08;100.00;102316.00;4909073;28;20058;-67
2022/03/04 08:02:26;;;;;;;49.45;26.33;;;;;;;0.12;100.00;102302.41;4906174;28;20077;-67
2022/03/04 08:04:52;;;;;;;51.25;24.58;;;;;;;0.16;100.00;102306.53;4906448;28;20082;-68
2022/03/04 08:07:18;;;;;;;48.45;26.55;;;;;;;0.30;100.00;102310.03;4921512;28;20031;-68
2022/03/04 08:09:44;;;;;;;46.08;23.38;;;;;;;0.36;100.00;102317.53;4891984;28;20046;-68
2022/03/04 08:12:10;;;;;;;50.05;24.83;;;;;;;0.30;100.00;102312.66;4890379;28;20058;-68
2022/03/04 08:14:36;;;;;;;43.00;23.23;;;;;;;0.24;100.00;102309.47;4906402;28;20023;-68
2022/03/04 08:17:02;;;;;;;47.80;25.98;;;;;;;0.22;100.00;102311.41;4909364;28;20573;-68
2022/03/04 08:19:28;;;;;;;39.90;23.00;;;;;;;0.28;100.00;102309.28;4921427;28;20062;-68
2022/03/04 08:21:53;;;;;;;47.97;24.55;;;;;;;0.40;100.00;102319.00;4921423;28;20031;-68
2022/03/04 08:24:19;;;;;;;46.75;26.08;;;;;;;0.42;100.00;102317.94;4903243;28;20716;-69
2022/03/04 08:26:44;;;;;;;40.75;24.52;;;;;;;0.39;100.00;102322.63;4896828;28;20047;-68
2022/03/04 08:29:10;;;;;;;37.17;21.33;;;;;;;0.39;100.00;102323.47;4906577;28;20055;-68
2022/03/04 08:31:36;;;;;;;43.03;23.20;;;;;;;0.46;100.00;102330.03;4936088;28;20057;-68
2022/03/04 08:34:02;;;;;;;43.58;24.75;;;;;;;0.54;100.00;102334.75;4939616;28;20136;-68
2022/03/04 08:36:28;;;;;;;45.60;24.55;;;;;;;0.77;100.00;102333.06;4923261;28;20093;-70
2022/03/04 08:38:53;;;;;;;40.60;23.02;;;;;;;0.98;100.00;102333.28;4928338;28;20039;-69
2022/03/04 08:41:19;;;;;;;41.83;24.38;;;;;;;1.14;100.00;102336.50;4900264;28;20145;-67
2022/03/04 08:43:46;;;;;;;43.58;22.95;;;;;;;1.45;100.00;102338.69;4904446;28;21333;-67
2022/03/04 08:46:13;;;;;;;37.85;22.50;;;;;;;1.74;100.00;102342.59;4917014;28;20031;-67
2022/03/04 08:48:40;;;;;;;41.17;22.50;;;;;;;2.11;100.00;102350.38;4907494;28;20138;-67
2022/03/04 08:51:05;;;;;;;39.40;22.63;;;;;;;2.49;100.00;102351.78;4912449;28;20138;-68
2022/03/04 08:53:31;;;;;;;37.78;22.48;;;;;;;3.06;100.00;102345.34;4905711;28;20042;-68
2022/03/04 08:55:57;;;;;;;36.97;22.73;;;;;;;3.96;100.00;102344.84;4921573;28;20023;-68
2022/03/04 08:58:22;;;;;;;31.00;20.02;;;;;;;3.97;100.00;102346.53;4914642;28;20047;-68
2022/03/04 09:00:48;;;;;;;32.83;20.40;;;;;;;4.05;100.00;102344.88;4910415;28;22775;-68
2022/03/04 09:03:13;;;;;;;31.55;20.30;;;;;;;3.42;100.00;102343.25;4922596;28;20050;-68
2022/03/04 09:05:38;;;;;;;28.75;18.98;;;;;;;3.54;100.00;102344.88;4901968;28;20055;-67
2022/03/04 09:08:04;;;;;;;31.48;19.45;;;;;;;4.01;100.00;102354.13;4932212;28;20075;-68
2022/03/04 09:10:30;;;;;;;30.30;19.20;;;;;;;4.93;100.00;102351.31;4899267;28;20058;-68
2022/03/04 09:12:55;;;;;;;27.35;18.13;;;;;;;5.09;100.00;102345.44;4899860;28;20061;-69
2022/03/04 09:15:21;;;;;;;28.38;18.55;;;;;;;5.58;100.00;102345.38;4918349;28;20121;-68
2022/03/04 09:17:46;;;;;;;26.38;18.25;;;;;;;5.98;100.00;102348.69;4901724;28;20142;-68
2022/03/04 09:20:14;;;;;;;26.15;17.40;;;;;;;5.79;100.00;102342.53;4919277;28;20054;-68
2022/03/04 09:22:40;;;;;;;27.80;18.35;;;;;;;5.71;100.00;102340.56;4905015;28;20034;-68
2022/03/04 09:25:05;;;;;;;26.33;17.23;;;;;;;5.87;100.00;102351.53;4906711;28;20193;-68
2022/03/04 09:27:31;;;;;;;28.85;18.52;;;;;;;5.41;100.00;102350.47;4905635;28;20046;-68
2022/03/04 09:29:56;;;;;;;28.98;18.65;;;;;;;5.64;100.00;102352.84;4901607;28;20093;-68
2022/03/04 09:32:23;;;;;;;30.92;18.00;;;;;;;5.63;100.00;102353.84;4919188;28;20041;-68
2022/03/04 09:34:48;;;;;;;24.17;16.80;;;;;;;6.30;100.00;102358.16;4913460;28;20257;-69
2022/03/04 09:37:14;;;;;;;25.10;17.38;;;;;;;6.31;100.00;102350.97;4912000;28;20067;-68
2022/03/04 09:39:39;;;;;;;22.73;15.82;;;;;;;5.79;100.00;102347.88;4919903;28;20535;-68
2022/03/04 09:42:06;;;;;;;23.50;15.93;;;;;;;5.70;100.00;102349.59;4907360;28;20066;-69
2022/03/04 09:44:32;;;;;;;26.02;16.48;;;;;;;5.63;100.00;102343.97;4921139;28;21073;-68
2022/03/04 09:47:00;;;;;;;23.20;15.88;;;;;;;5.66;100.00;102349.03;4914363;28;20089;-68
2022/03/04 09:49:31;;;;;;;23.58;16.25;;;;;;;5.69;100.00;102347.91;4914750;28;20521;-68
2022/03/04 09:51:57;;;;;;;22.13;16.73;;;;;;;5.82;100.00;102353.78;4918499;28;20089;-68
2022/03/04 09:54:26;;;;;;;24.95;17.27;;;;;;;5.58;100.00;102350.72;4905216;28;20043;-68
2022/03/04 09:56:52;;;;;;;23.90;16.52;;;;;;;5.72;100.00;102352.94;4919094;28;20043;-68
2022/03/04 09:59:17;;;;;;;23.15;17.40;;;;;;;5.82;100.00;102347.59;4911249;28;20382;-68
2022/03/04 10:01:44;;;;;;;25.50;17.10;;;;;;;6.03;100.00;102355.44;4915683;28;20133;-68
2022/03/04 10:04:09;;;;;;;23.88;17.25;;;;;;;6.58;100.00;102347.44;4921871;28;20074;-68
2022/03/04 10:06:38;;;;;;;23.48;15.45;;;;;;;6.35;100.00;102350.53;4912651;28;20093;-69
2022/03/04 10:09:03;;;;;;;23.80;16.17;;;;;;;6.62;100.00;102341.63;4907272;28;20099;-68
2022/03/04 10:11:31;;;;;;;24.55;16.52;;;;;;;6.62;100.00;102346.16;4893621;28;20117;-68
2022/03/04 10:13:59;;;;;;;23.42;16.10;;;;;;;6.58;100.00;102345.63;4924290;28;20026;-68
2022/03/04 10:16:33;;;;;;;22.65;15.52;;;;;;;6.56;98.60;102354.78;4923390;28;20041;-68
2022/03/04 10:19:10;;;;;;;22.58;15.32;;;;;;;6.88;98.98;102351.63;4906507;28;20059;-68
2022/03/04 10:21:56;;;;;;;21.17;15.02;;;;;;;7.08;100.00;102341.59;4922683;28;20045;-68
2022/03/04 10:24:21;;;;;;;24.67;16.57;;;;;;;7.14;91.68;102341.00;4868462;28;1122366;-68
2022/03/04 10:26:48;;;;;;;19.95;15.50;;;;;;;7.54;90.20;102347.69;4925082;28;20129;-69
2022/03/04 10:29:33;;;;;;;23.20;15.55;;;;;;;7.59;85.31;102348.09;4907648;28;20089;-68
2022/03/04 10:32:05;;;;;;;20.80;14.70;;;;;;;7.52;83.39;102338.97;4924093;28;20054;-68
2022/03/04 10:34:42;;;;;;;22.23;14.98;;;;;;;7.45;83.01;102337.91;4924698;28;20106;-68
2022/03/04 10:37:07;;;;;;;22.98;15.60;;;;;;;7.47;92.63;102341.28;4912147;28;20211;-69
2022/03/04 10:39:33;;;;;;;22.60;15.52;;;;;;;7.74;85.12;102342.97;4925068;28;20032;-70
2022/03/04 10:41:58;;;;;;;21.92;15.02;;;;;;;8.22;76.00;102338.91;4908090;28;20134;-70
2022/03/04 10:44:25;;;;;;;23.40;16.38;;;;;;;8.39;73.66;102342.50;4897203;28;20149;-70
2022/03/04 10:46:54;;;;;;;22.75;14.88;;;;;;;8.93;69.29;102345.69;4904102;28;20404;-70
2022/03/04 10:49:24;;;;;;;19.75;14.35;;;;;;;8.99;67.69;102339.69;4914796;28;20051;-70
2022/03/04 10:51:50;;;;;;;21.73;15.07;;;;;;;8.93;68.48;102330.41;4908053;28;20034;-70
2022/03/04 10:54:17;;;;;;;21.45;14.40;;;;;;;9.28;65.32;102333.81;4909471;28;24097;-70
2022/03/04 10:56:55;;;;;;;23.35;16.08;;;;;;;9.19;62.20;102327.56;4922534;28;20089;-70
2022/03/04 10:59:21;;;;;;;18.80;13.77;;;;;;;9.26;63.34;102331.28;4899773;28;20189;-70
2022/03/04 11:01:51;;;;;;;23.55;15.48;;;;;;;9.56;62.27;102331.63;4914949;28;20414;-70
2022/03/04 11:04:18;;;;;;;18.73;13.80;;;;;;;9.50;61.84;102322.34;4923815;28;20041;-70
2022/03/04 11:06:47;;;;;;;21.90;15.43;;;;;;;9.79;62.75;102332.59;4895569;28;20706;-70
2022/03/04 11:09:17;;;;;;;21.33;14.95;;;;;;;9.46;61.29;102322.88;4925593;28;20111;-70
2022/03/04 11:11:43;;;;;;;21.40;15.00;;;;;;;9.97;58.90;102331.53;4891909;28;20039;-70
2022/03/04 11:14:12;;;;;;;21.40;14.73;;;;;;;9.86;59.82;102331.88;4921077;28;22396;-70
2022/03/04 11:16:39;;;;;;;21.77;15.07;;;;;;;10.19;59.13;102324.56;4922880;28;20057;-70
2022/03/04 11:19:09;;;;;;;20.73;14.65;;;;;;;10.65;56.87;102322.03;4907897;28;20054;-69
2022/03/04 11:21:34;;;;;;;21.60;14.52;;;;;;;10.06;58.29;102327.81;4907585;28;20042;-70
2022/03/04 11:24:00;;;;;;;25.58;16.02;;;;;;;10.62;55.06;102320.50;4907338;28;20046;-69